• Join FlightAware (Why Join?)
  • Login
  • US Flag 
05:15PM EDT


 

Airport Tracker/Info


-or-


 

Live Flight TrackerFlight Track Log ✈ N44979 ✈ 12-May-2013 ✈ KABY - KRYY

Flight Track Log - Related Links

Times and Time Zones

All times are in EDT time to prevent confusion due to time zone crossing. See the N44979 flight status page for this flight to view local times or setup timezone preferences in your user account.

Time Position Orientation Groundspeed Altitude Reporting Facility
EDT Latitude Longitude Course Direction KTS MPH feet Rate Location/Type
03:41PM 31.5775 -84.1778 346° North 76 87 6,000  Level Jacksonville Center
03:42PM 31.5753 -84.1800 220° Southwest 63 72 6,000 -2,700 Level Jacksonville Center
03:43PM 31.5417 -84.2017 209° Southwest 154 177 700 -2,220 Descending Jacksonville Center
03:44PM 31.5659 -84.2035 346° North  Level FlightAware Approximate
03:44PM 31.5667 -84.2044 355° North 32 37 1,600  Level Jacksonville Center
03:45PM 31.5963 -84.2124 346° North  Level FlightAware Approximate
03:45PM 31.5897 -84.2119 345° North 32 37 2,100  Level Jacksonville Center
03:46PM 31.6266 -84.2215 346° North  Level FlightAware Approximate
03:46PM 31.6147 -84.2197 345° North 76 87 2,900  Level Jacksonville Center
03:47PM 31.6397 -84.2250 350° North 88 101 3,500 480 Climbing Jacksonville Center
03:48PM 31.6647 -84.2303 350° North 93 107 3,900 600 Climbing Jacksonville Center
03:49PM 31.6917 -84.2356 351° North 93 107 4,700 600 Climbing Jacksonville Center
03:50PM 31.7147 -84.2431 345° North 88 101 5,200 420 Climbing Jacksonville Center
03:52PM 31.7644 -84.2586 345° North 88 101 6,000 240 Climbing Jacksonville Center
03:53PM 31.7958 -84.2639 352° North 93 107 6,000  Level Jacksonville Center
03:54PM 31.8250 -84.2717 347° North 104 120 6,000  Level Jacksonville Center
03:55PM 31.8542 -84.2794 347° North 104 120 6,000  Level Jacksonville Center
03:57PM 31.9167 -84.3000 344° North 110 127 6,000  Level Atlanta TRACON
03:58PM 31.9500 -84.3000 360° North 114 131 6,000  Level Atlanta TRACON
03:59PM 31.9833 -84.3167 337° Northwest 109 125 6,000  Level Atlanta TRACON
04:00PM 32.0167 -84.3167 360° North 116 133 6,000  Level Atlanta TRACON
04:01PM 32.0500 -84.3167 360° North 112 129 6,000  Level Atlanta TRACON
04:02PM 32.0833 -84.3333 337° Northwest 117 135 6,000  Level Atlanta TRACON
04:03PM 32.1167 -84.3333 360° North 115 132 6,000  Level Atlanta TRACON
04:04PM 32.1500 -84.3333 360° North 115 132 6,000  Level Atlanta TRACON
04:05PM 32.1667 -84.3333 360° North 114 131 6,000  Level Atlanta TRACON
04:06PM 32.2000 -84.3333 360° North 110 127 6,000  Level Atlanta TRACON
04:07PM 32.2333 -84.3333 360° North 115 132 6,000  Level Atlanta TRACON
04:08PM 32.2667 -84.3333 360° North 114 131 6,000  Level Atlanta TRACON
04:09PM 32.3000 -84.3333 360° North 114 131 6,000  Level Atlanta TRACON
04:10PM 32.3333 -84.3500 337° Northwest 110 127 6,000  Level Atlanta TRACON
04:11PM 32.3500 -84.3500 360° North 116 133 6,000  Level Atlanta TRACON
04:12PM 32.3833 -84.3500 360° North 118 136 6,000  Level Atlanta TRACON
04:13PM 32.4167 -84.3500 360° North 113 130 6,000  Level Atlanta TRACON
04:14PM 32.4500 -84.3500 360° North 112 129 6,000  Level Atlanta TRACON
04:15PM 32.4833 -84.3500 360° North 115 132 6,000  Level Atlanta TRACON
04:16PM 32.5167 -84.3500 360° North 109 125 6,000  Level Atlanta TRACON
04:17PM 32.5500 -84.3500 360° North 112 129 6,000  Level Atlanta TRACON
04:18PM 32.5833 -84.3667 337° Northwest 121 139 6,000  Level Atlanta TRACON
04:19PM 32.6167 -84.3667 360° North 117 135 6,000  Level Atlanta TRACON
04:20PM 32.6500 -84.3667 360° North 113 130 6,000 -60 Level Atlanta TRACON
04:21PM 32.6667 -84.3667 360° North 113 130 5,900  Descending Atlanta TRACON
04:22PM 32.7000 -84.3667 360° North 110 127 6,000  Climbing Atlanta TRACON
04:23PM 32.7333 -84.3667 360° North 117 135 6,000 -60 Level Atlanta TRACON
04:24PM 32.7667 -84.3667 360° North 115 132 5,900  Descending Atlanta TRACON
04:25PM 32.8000 -84.3667 360° North 113 130 6,000  Climbing Atlanta TRACON
04:26PM 32.8333 -84.3833 337° Northwest 114 131 6,000 -60 Level Atlanta TRACON
04:27PM 32.8667 -84.3833 360° North 114 131 5,900  Descending Atlanta TRACON
04:28PM 32.9000 -84.3833 360° North 108 124 6,000  Climbing Atlanta TRACON
04:29PM 32.9167 -84.3833 360° North 112 129 6,000  Level Atlanta TRACON
04:30PM 32.9500 -84.3833 360° North 115 132 6,000  Level Atlanta TRACON
04:31PM 32.9833 -84.3833 360° North 110 127 6,000  Level Atlanta TRACON
04:32PM 33.0167 -84.4000 337° Northwest 109 125 6,000  Level Atlanta TRACON
04:33PM 33.0500 -84.4000 360° North 113 130 6,000 -300 Level Atlanta TRACON
04:34PM 33.0833 -84.4000 360° North 115 132 5,500 -480 Descending Atlanta TRACON
04:35PM 33.1167 -84.4000 360° North 109 125 5,100 -300 Descending Atlanta TRACON
04:36PM 33.1333 -84.4000 360° North 111 128 5,000 -60 Descending Atlanta TRACON
04:37PM 33.1667 -84.4000 360° North 110 127 5,000  Level Atlanta TRACON
04:38PM 33.2000 -84.4000 360° North 114 131 5,000 -60 Level Atlanta TRACON
04:39PM 33.2333 -84.4000 360° North 111 128 4,900  Descending Atlanta TRACON
04:40PM 33.2667 -84.4167 337° Northwest 106 122 5,000  Climbing Atlanta TRACON
04:41PM 33.3000 -84.4167 360° North 108 124 5,000  Level Atlanta TRACON
04:42PM 33.3333 -84.4167 360° North 112 129 5,000  Level Atlanta TRACON
04:43PM 33.3500 -84.4000 40° Northeast 113 130 5,000  Level Atlanta TRACON
04:44PM 33.3833 -84.4000 360° North 110 127 5,000  Level Atlanta TRACON
04:45PM 33.4167 -84.4000 360° North 112 129 5,000 -60 Level Atlanta TRACON
04:46PM 33.4500 -84.4000 360° North 109 125 4,900  Descending Atlanta TRACON
04:47PM 33.4833 -84.4000 360° North 108 124 5,000  Climbing Atlanta TRACON
04:48PM 33.5167 -84.4000 360° North 111 128 5,000 -60 Level Atlanta TRACON
04:49PM 33.5333 -84.3833 40° Northeast 114 131 4,900  Descending Atlanta TRACON
04:50PM 33.5667 -84.3833 360° North 112 129 5,000  Climbing Atlanta TRACON
04:51PM 33.6000 -84.3833 360° North 112 129 5,000  Level Atlanta TRACON
04:53PM 33.6667 -84.3833 360° North 112 129 5,000  Level Atlanta TRACON
04:54PM 33.7000 -84.3667 23° Northeast 115 132 5,000  Level Atlanta TRACON
04:55PM 33.7333 -84.3667 360° North 111 128 5,000  Level Atlanta TRACON
04:56PM 33.7667 -84.3667 360° North 119 137 5,000  Level Atlanta TRACON
04:57PM 33.8000 -84.3667 360° North 121 139 5,000  Level Atlanta TRACON
04:58PM 33.8167 -84.3667 360° North 112 129 5,000  Level Atlanta TRACON
04:59PM 33.8500 -84.3500 23° Northeast 116 133 5,000 -300 Level Atlanta TRACON
05:00PM 33.8833 -84.3500 360° North 111 128 4,500 -540 Descending Atlanta TRACON
05:01PM 33.9167 -84.3500 360° North 105 121 4,000 -300 Descending Atlanta TRACON
05:02PM 33.9500 -84.3500 360° North 106 122 4,000 -240 Level Atlanta TRACON
05:03PM 33.9667 -84.3667 320° Northwest 110 127 3,600 -420 Descending Atlanta TRACON
05:04PM 34.0000 -84.3667 360° North 104 120 3,200 -360 Descending Atlanta TRACON
05:05PM 34.0167 -84.4000 301° West 99 114 2,900 -60 Descending Atlanta TRACON
05:06PM 34.0167 -84.4333 270° West 103 119 3,100 60 Climbing Atlanta TRACON
05:07PM 34.0167 -84.4667 270° West 96 110 3,100 -120 Level Atlanta TRACON
05:08PM 34.0167 -84.4833 270° West 85 98 2,900 -480 Descending Atlanta TRACON
05:09PM 34.0167 -84.5167 270° West 68 78 2,200 -540 Descending Atlanta TRACON
05:10PM 34.0167 -84.5333 270° West 73 84 1,900 -300 Descending Atlanta TRACON
05:11PM 34.0167 -84.5667 270° West 72 83 1,700 -240 Descending Atlanta TRACON